Emden — 3ERP5 — position and weather

sailwx.info

Track history (hours):
 
Tides and Currents Weather Stations Pressure Air Temp Water Temp Dewpoint Dewpoint Depression Visibility Wind Speed Wind Dir Waves Ship Positions

Emden

Last reported at 2016-Sep-30 03:31 UTC. Time now 2016-Sep-30 23:46 UTC.
Position N 43°47' W 006°11'.

Length 177 m; draft 7.7 m.

Type: Ship. MMSI: 355051000.

Date/timePositionNaut miles runAvg speedWind from/ knotsBaromVisibWave heightAir tempDewpointWater temp
2016-Sep-30 03:31N 43°47' W 006°11'1515.7
2016-Sep-30 02:33N 43°46' W 005°50'84 4.4
2016-Sep-29 07:23N 44°31' W 004°11'15515.4
2016-Sep-28 21:18N 46°59' W 005°16'2715.1
2016-Sep-28 19:31N 47°25' W 005°28'5016.3
2016-Sep-28 16:26N 48°13' W 005°49'1415.8
2016-Sep-28 15:32N 48°27' W 005°55'3812.7
2016-Sep-28 12:33N 49°01' W 005°31'6414.8
2016-Sep-28 08:14N 49°34' W 004°06'6413.7
2016-Sep-28 03:33N 50°03' W 002°38'12915.5
2016-Sep-27 19:14N 50°39' E 000°36'5812.4
2016-Sep-27 14:33N 51°26' E 001°30'13 0.5
2016-Sep-26 11:26N 51°33' E 001°48'16511.6
2016-Sep-25 21:11N 53°32' E 004°56'5812.0
2016-Sep-25 16:20N 53°36' E 006°34'912.0
2016-Sep-25 15:33N 53°31' E 006°47'12 9.9
2016-Sep-25 14:19N 53°21' E 006°59'7 3.9
2016-Sep-25 12:33N 53°20' E 007°11'0 0.0
2016-Sep-25 11:33N 53°20' E 007°11'0 0.0
2016-Sep-25 10:30N 53°20' E 007°11'0 0.0
2016-Sep-25 09:27N 53°20' E 007°11'0 0.0
2016-Sep-24 22:32N 53°20' E 007°11'0 0.0
2016-Sep-24 19:20N 53°20' E 007°11'0 0.0
2016-Sep-24 17:29N 53°20' E 007°11'0 0.0
2016-Sep-24 16:29N 53°20' E 007°11'0 0.0
2016-Sep-24 12:25N 53°20' E 007°11'0 0.0
2016-Sep-24 10:33N 53°20' E 007°11'0 0.0
2016-Sep-24 09:33N 53°20' E 007°11'0 0.0
2016-Sep-24 03:30N 53°20' E 007°11'0 0.0
2016-Sep-24 02:27N 53°20' E 007°11'0 0.0
2016-Sep-24 01:30N 53°20' E 007°11'0 0.0
2016-Sep-24 00:25N 53°20' E 007°11'5110.5
2016-Sep-23 19:33N 53°39' E 005°51'2813.7
2016-Sep-23 17:33N 53°30' E 005°07'2613.1
2016-Sep-23 15:33N 53°13' E 004°33'2813.7
2016-Sep-23 13:32N 52°49' E 004°12'10314.4
2016-Sep-23 06:23N 51°32' E 002°20'4915.7
2016-Sep-23 03:15N 50°55' E 001°29'1315.4
2016-Sep-23 02:23N 50°43' E 001°20'4515.2
2016-Sep-22 23:26N 50°23' E 000°17'  
2016-Sep-20 08:32N 39°26' W 009°51'1212.7
2016-Sep-20 07:34N 39°13' W 009°52'1313.4
2016-Sep-20 06:33N 38°60' W 009°51'  
Track history (hours):
 
Tides and Currents Weather Stations Pressure Air Temp Water Temp Dewpoint Dewpoint Depression Visibility Wind Speed Wind Dir Waves Ship Positions

Emden

Last reported at 2016-Sep-30 03:31 UTC. Time now 2016-Sep-30 23:46 UTC.
Position N 43°47' W 006°11'.

Length 177 m; draft 7.7 m.

Type: Ship. MMSI: 355051000.

Date/timePositionNaut miles runAvg speedWind from/ knotsBaromVisibWave heightAir tempDewpointWater temp
2016-Sep-30 03:31N 43°47' W 006°11'1515.7
2016-Sep-30 02:33N 43°46' W 005°50'84 4.4
2016-Sep-29 07:23N 44°31' W 004°11'15515.4
2016-Sep-28 21:18N 46°59' W 005°16'2715.1
2016-Sep-28 19:31N 47°25' W 005°28'5016.3
2016-Sep-28 16:26N 48°13' W 005°49'1415.8
2016-Sep-28 15:32N 48°27' W 005°55'3812.7
2016-Sep-28 12:33N 49°01' W 005°31'6414.8
2016-Sep-28 08:14N 49°34' W 004°06'6413.7
2016-Sep-28 03:33N 50°03' W 002°38'12915.5
2016-Sep-27 19:14N 50°39' E 000°36'5812.4
2016-Sep-27 14:33N 51°26' E 001°30'13 0.5
2016-Sep-26 11:26N 51°33' E 001°48'16511.6
2016-Sep-25 21:11N 53°32' E 004°56'5812.0
2016-Sep-25 16:20N 53°36' E 006°34'912.0
2016-Sep-25 15:33N 53°31' E 006°47'12 9.9
2016-Sep-25 14:19N 53°21' E 006°59'7 3.9
2016-Sep-25 12:33N 53°20' E 007°11'0 0.0
2016-Sep-25 11:33N 53°20' E 007°11'0 0.0
2016-Sep-25 10:30N 53°20' E 007°11'0 0.0
2016-Sep-25 09:27N 53°20' E 007°11'0 0.0
2016-Sep-24 22:32N 53°20' E 007°11'0 0.0
2016-Sep-24 19:20N 53°20' E 007°11'0 0.0
2016-Sep-24 17:29N 53°20' E 007°11'0 0.0
2016-Sep-24 16:29N 53°20' E 007°11'0 0.0
2016-Sep-24 12:25N 53°20' E 007°11'0 0.0
2016-Sep-24 10:33N 53°20' E 007°11'0 0.0
2016-Sep-24 09:33N 53°20' E 007°11'0 0.0
2016-Sep-24 03:30N 53°20' E 007°11'0 0.0
2016-Sep-24 02:27N 53°20' E 007°11'0 0.0
2016-Sep-24 01:30N 53°20' E 007°11'0 0.0
2016-Sep-24 00:25N 53°20' E 007°11'5110.5
2016-Sep-23 19:33N 53°39' E 005°51'2813.7
2016-Sep-23 17:33N 53°30' E 005°07'2613.1
2016-Sep-23 15:33N 53°13' E 004°33'2813.7
2016-Sep-23 13:32N 52°49' E 004°12'10314.4
2016-Sep-23 06:23N 51°32' E 002°20'4915.7
2016-Sep-23 03:15N 50°55' E 001°29'1315.4
2016-Sep-23 02:23N 50°43' E 001°20'4515.2
2016-Sep-22 23:26N 50°23' E 000°17'  
2016-Sep-20 08:32N 39°26' W 009°51'1212.7
2016-Sep-20 07:34N 39°13' W 009°52'1313.4
2016-Sep-20 06:33N 38°60' W 009°51'  

Dump ship's entire track history